Latest Weather Observations for Roebourne Airport

IDW60801

Issued at 11:02 pm WST Thursday 3 September 2015 (issued every 30 minutes, with the page automatically refreshed every 10 minutes)

About weather observations | Map of weather stations | Latest weather observations for WA | Other Formats
Station Details ID: 004090 Name: ROEBOURNE AERO Lat: -20.76 Lon: 117.16 Height: 10.7 m
Data from the previous 72 hours. | See also: Recent months at Roebourne Airport
Date/Time
WST
Temp
°C
App
Temp
°C
Dew
Point
Rel
Hum
%
Delta-T
°C
Wind Press
QNH
hPa
Press
MSL
hPa
Rain
since 9 am
mm
Dir
 
Spd
km/h
Gust
km/h
Spd
kts
Gust
kts
03/11:00pm 18.5 16.6 10.6 60 4.2 W 11 13 6 7 1018.2 1018.1 0.0
03/10:30pm 18.9 16.4 11.2 61 4.2 W 15 19 8 10 1018.2 1018.1 0.0
03/10:00pm 19.3 17.0 11.8 62 4.1 W 15 17 8 9 1018.3 1018.2 0.0
03/09:30pm 19.4 17.7 12.4 64 3.9 W 13 15 7 8 1018.4 1018.3 0.0
03/09:00pm 20.4 18.5 12.9 62 4.2 W 15 19 8 10 1018.3 1018.2 0.0
03/08:30pm 21.1 19.2 14.3 65 4.0 W 17 20 9 11 1018.2 1018.1 0.0
03/08:00pm 21.2 20.0 14.1 64 4.1 W 13 17 7 9 1017.8 1017.7 0.0
03/07:30pm 21.8 20.1 14.7 64 4.2 W 17 20 9 11 1017.6 1017.5 0.0
03/07:00pm 22.3 21.0 14.7 62 4.5 WNW 15 17 8 9 1017.2 1017.1 0.0
03/06:30pm 23.0 21.3 14.6 59 5.0 WNW 17 20 9 11 1017.0 1016.9 0.0
03/06:00pm 23.9 21.8 14.6 56 5.5 NW 19 22 10 12 1016.6 1016.5 0.0
03/05:30pm 25.1 22.3 13.3 48 6.9 NW 20 26 11 14 1016.5 1016.4 0.0
03/05:00pm 26.4 22.5 9.3 34 9.4 NNW 20 26 11 14 1016.2 1016.1 0.0
03/04:30pm 26.6 22.9 9.5 34 9.4 NNW 19 24 10 13 1016.2 1016.1 0.0
03/04:00pm 27.6 23.8 9.9 33 9.9 N 20 26 11 14 1016.2 1016.1 0.0
03/03:30pm 28.4 23.7 5.3 23 12.0 N 19 28 10 15 1016.0 1015.9 0.0
03/03:00pm 29.2 23.9 3.2 19 13.0 N 20 30 11 16 1016.0 1015.9 0.0
03/02:30pm 28.8 24.0 5.6 23 12.1 N 20 28 11 15 1016.2 1016.1 0.0
03/02:00pm 28.4 23.9 7.1 26 11.4 N 20 28 11 15 1016.5 1016.4 0.0
03/01:30pm 28.1 23.6 6.8 26 11.3 NNE 20 28 11 15 1016.8 1016.7 0.0
03/01:00pm 28.8 24.5 7.9 27 11.3 NNE 20 30 11 16 1016.9 1016.8 0.0
03/12:30pm 29.0 24.4 6.4 24 12.0 NE 20 30 11 16 1017.3 1017.2 0.0
03/12:00pm 28.6 23.0 5.5 23 12.0 NE 24 33 13 18 1017.4 1017.3 0.0
03/11:30am 29.0 23.7 7.0 25 11.8 ENE 24 33 13 18 1017.7 1017.6 0.0
03/11:00am 27.3 23.5 7.7 29 10.5 ENE 17 26 9 14 1018.1 1018.0 0.0
03/10:30am 26.9 22.8 8.8 32 9.9 ENE 20 26 11 14 1018.3 1018.2 0.0
03/10:00am 26.1 22.7 9.0 34 9.3 E 17 22 9 12 1018.5 1018.4 0.0
03/09:30am 25.3 21.2 7.9 33 9.3 ESE 19 24 10 13 1018.4 1018.3 0.0
03/09:00am 24.0 20.2 7.6 35 8.6 ESE 17 22 9 12 1018.4 1018.3 0.0
03/08:30am 22.4 19.6 9.9 45 6.8 ESE 15 17 8 9 1018.3 1018.2 0.0
03/08:00am 20.4 19.1 11.1 55 5.1 E 9 13 5 7 1018.1 1018.0 0.0
03/07:30am 17.8 17.0 10.9 64 3.7 E 6 7 3 4 1018.0 1017.9 0.0
03/07:00am 14.3 12.7 10.1 76 2.2 E 9 11 5 6 1017.8 1017.7 0.0
03/06:30am 12.1 10.5 8.2 77 1.9 SSE 6 7 3 4 1017.6 1017.5 0.0
03/06:00am 12.3 11.8 7.8 74 2.2 CALM 0 7 0 4 1017.2 1017.1 0.0
03/05:30am 12.9 12.6 8.8 76 2.1 CALM 0 0 0 0 1016.9 1016.8 0.0
03/05:00am 13.1 12.6 9.2 77 2.0 SW 2 6 1 3 1016.5 1016.4 0.0
03/04:30am 12.9 11.3 8.2 73 2.3 S 6 9 3 5 1016.4 1016.3 0.0
03/04:00am 13.5 13.3 9.0 74 2.3 CALM 0 0 0 0 1016.4 1016.3 0.0
03/03:30am 14.0 12.5 8.6 70 2.7 SW 6 7 3 4 1016.3 1016.2 0.0
03/03:00am 14.2 12.7 9.2 72 2.5 SW 7 9 4 5 1016.5 1016.4 0.0
03/02:30am 16.7 15.7 12.3 75 2.4 SW 9 11 5 6 1016.6 1016.5 0.0
03/02:00am 16.4 14.9 12.0 75 2.4 SW 11 11 6 6 1016.8 1016.7 0.0
03/01:30am 16.6 14.8 12.2 75 2.4 SW 13 15 7 8 1017.0 1016.9 0.0
03/01:00am 16.6 15.6 12.4 76 2.3 SW 9 11 5 6 1017.2 1017.1 0.0
03/12:30am 16.5 15.3 12.7 78 2.1 SW 11 13 6 7 1017.4 1017.3 0.0
03/12:00am 16.6 15.3 12.6 77 2.2 SW 11 13 6 7 1017.6 1017.5 0.0
 
Date/Time
WST
Temp
°C
App
Temp
°C
Dew
Point
Rel
Hum
%
Delta-T
°C
Wind Press
QNH
hPa
Press
MSL
hPa
Rain
since 9 am
mm
Dir
 
Spd
km/h
Gust
km/h
Spd
kts
Gust
kts
02/11:30pm 16.3 15.2 11.9 75 2.4 SW 9 11 5 6 1017.6 1017.5 0.0
02/11:00pm 16.1 14.7 10.8 71 2.8 SW 9 11 5 6 1017.6 1017.5 0.0
02/10:30pm 16.2 15.1 10.1 67 3.2 SW 6 7 3 4 1017.7 1017.6 0.0
02/10:00pm 16.2 14.2 10.1 67 3.2 SSW 11 11 6 6 1017.9 1017.8 0.0
02/09:30pm 16.4 15.6 8.1 58 4.2 NW 2 6 1 3 1017.9 1017.8 0.0
02/09:00pm 18.3 17.5 11.6 65 3.7 WNW 7 7 4 4 1017.9 1017.8 0.0
02/08:30pm 17.9 16.6 10.0 60 4.2 WSW 7 9 4 5 1017.8 1017.7 0.0
02/08:00pm 19.9 19.1 12.9 64 4.0 NNW 9 11 5 6 1017.4 1017.3 0.0
02/07:30pm 20.3 18.9 12.3 60 4.5 NNW 11 11 6 6 1017.1 1017.0 0.0
02/07:00pm 21.2 19.8 12.1 56 5.1 NNW 11 13 6 7 1016.7 1016.6 0.0
02/06:30pm 22.1 20.4 11.2 50 6.0 NNW 11 15 6 8 1016.4 1016.3 0.0
02/06:00pm 23.8 19.8 8.2 37 8.3 N 19 24 10 13 1015.9 1015.8 0.0
02/05:30pm 24.8 19.9 7.0 32 9.3 N 22 30 12 16 1015.7 1015.6 0.0
02/05:00pm 25.8 20.0 6.4 29 10.1 N 26 32 14 17 1015.4 1015.3 0.0
02/04:30pm 26.3 20.9 7.8 31 9.9 NNE 26 33 14 18 1015.0 1014.9 0.0
02/04:00pm 26.6 21.4 7.1 29 10.3 NNE 24 30 13 16 1015.2 1015.1 0.0
02/03:30pm 27.1 22.0 7.5 29 10.5 N 24 30 13 16 1015.3 1015.2 0.0
02/03:00pm 27.4 23.1 9.3 32 10.0 NNE 22 28 12 15 1015.4 1015.3 0.0
02/02:30pm 27.0 22.1 8.4 31 10.1 NNE 24 32 13 17 1015.4 1015.3 0.0
02/02:00pm 27.9 23.1 7.2 27 11.0 NNE 22 30 12 16 1015.8 1015.7 0.0
02/01:30pm 28.5 22.8 4.7 22 12.2 NE 24 32 13 17 1016.2 1016.1 0.0
02/01:00pm 28.4 21.4 1.8 18 12.9 NE 28 43 15 23 1016.4 1016.3 0.0
02/12:30pm 28.7 22.4 3.5 20 12.7 ENE 26 35 14 19 1016.6 1016.5 0.0
02/12:00pm 28.0 21.4 2.2 19 12.6 ENE 26 35 14 19 1017.0 1016.9 0.0
02/11:30am 27.6 21.2 3.3 21 12.1 ENE 26 35 14 19 1017.2 1017.1 0.0
02/11:00am 27.4 20.2 1.0 18 12.6 E 28 43 15 23 1017.5 1017.4 0.0
02/10:30am 26.7 19.2 1.2 19 12.1 E 30 44 16 24 1017.8 1017.7 0.0
02/10:00am 26.2 18.7 1.5 20 11.8 E 30 41 16 22 1017.7 1017.6 0.0
02/09:30am 25.2 17.2 0.7 20 11.4 E 32 43 17 23 1017.5 1017.4 0.0
02/09:00am 24.2 16.3 1.2 22 10.7 ESE 32 41 17 22 1017.2 1017.1 0.0
02/08:30am 22.8 14.3 0.6 23 10.2 ESE 35 46 19 25 1017.0 1016.9 0.0
02/08:00am 21.7 14.3 1.9 27 9.2 ESE 30 39 16 21 1017.0 1016.9 0.0
02/07:53am 21.0 14.9 2.8 30 8.6 E 24 39 13 21 1016.9 1016.8 0.0
02/07:30am 18.3 16.0 9.1 55 4.8 E 11 17 6 9 1016.8 1016.7 0.0
02/07:00am 14.8 13.5 9.2 69 2.9 E 6 7 3 4 1016.4 1016.3 0.0
02/06:30am 12.9 11.2 8.4 74 2.2 SE 7 9 4 5 1016.0 1015.9 0.0
02/06:00am 12.0 10.6 9.6 85 1.2 SE 7 9 4 5 1015.6 1015.5 0.0
02/05:30am 12.4 10.5 10.6 89 0.9 S 11 13 6 7 1015.1 1015.0 0.0
02/05:00am 12.5 10.2 10.4 87 1.1 SSW 13 15 7 8 1014.7 1014.6 0.0
02/04:30am 11.7 9.5 7.8 77 1.9 SSW 9 11 5 6 1014.6 1014.5 0.0
02/04:00am 12.7 11.1 8.0 73 2.3 SW 6 7 3 4 1014.5 1014.4 0.0
02/03:30am 14.0 12.7 9.8 76 2.2 SW 7 7 4 4 1014.5 1014.4 0.0
02/03:00am 13.7 13.4 8.5 71 2.6 CALM 0 0 0 0 1014.7 1014.6 0.0
02/02:30am 15.0 12.9 9.6 70 2.8 WSW 11 13 6 7 1014.8 1014.7 0.0
02/02:00am 15.1 13.6 9.0 67 3.1 W 7 9 4 5 1014.9 1014.8 0.0
02/01:30am 17.3 15.8 12.0 71 2.9 WSW 11 13 6 7 1015.1 1015.0 0.0
02/01:00am 16.9 15.3 11.4 70 3.0 W 11 13 6 7 1015.4 1015.3 0.0
02/12:30am 17.1 14.8 10.5 65 3.5 W 13 15 7 8 1015.6 1015.5 0.0
02/12:00am 16.8 15.1 9.7 63 3.7 NW 9 13 5 7 1015.8 1015.7 0.0
 
Date/Time
WST
Temp
°C
App
Temp
°C
Dew
Point
Rel
Hum
%
Delta-T
°C
Wind Press
QNH
hPa
Press
MSL
hPa
Rain
since 9 am
mm
Dir
 
Spd
km/h
Gust
km/h
Spd
kts
Gust
kts
01/11:30pm 17.6 15.4 9.2 58 4.4 NW 11 13 6 7 1016.0 1015.9 0.0
01/11:00pm 19.3 17.2 9.8 54 5.1 W 11 17 6 9 1015.9 1015.8 0.0
01/10:30pm 19.5 17.1 8.5 49 5.7 W 11 17 6 9 1015.9 1015.8 0.0
01/10:00pm 19.8 16.9 8.2 47 6.0 W 13 17 7 9 1015.9 1015.8 0.0
01/09:30pm 20.1 16.5 8.4 47 6.1 W 17 20 9 11 1015.9 1015.8 0.0
01/09:00pm 20.7 17.3 9.3 48 6.1 WNW 17 20 9 11 1015.7 1015.6 0.0
01/08:30pm 21.7 18.4 9.6 46 6.5 W 17 19 9 10 1015.6 1015.5 0.0
01/08:00pm 22.7 18.9 9.8 44 7.0 W 20 26 11 14 1015.3 1015.2 0.0
01/07:30pm 23.1 19.9 8.4 39 7.8 W 15 20 8 11 1014.9 1014.8 0.0
01/07:00pm 24.2 19.7 6.0 31 9.3 WNW 19 22 10 12 1014.4 1014.3 0.0
01/06:30pm 24.8 21.0 7.4 33 9.2 WNW 17 20 9 11 1014.1 1014.0 0.0
01/06:00pm 26.2 21.5 5.2 26 10.7 WNW 19 24 10 13 1013.8 1013.7 0.0
01/05:30pm 27.5 22.9 6.3 26 11.1 NW 20 28 11 15 1013.6 1013.5 0.0
01/05:00pm 28.1 23.1 7.9 28 10.9 NW 24 30 13 16 1013.3 1013.3 0.0
01/04:30pm 28.8 23.4 7.9 27 11.3 NNW 26 32 14 17 1013.1 1013.1 0.0
01/04:00pm 29.3 24.1 8.9 28 11.3 NNW 26 35 14 19 1013.1 1013.1 0.0
01/03:30pm 29.4 23.3 6.7 24 12.1 NNW 28 37 15 20 1013.2 1013.2 0.0
01/03:00pm 30.6 24.7 5.8 21 13.1 NNW 26 33 14 18 1013.1 1013.1 0.0
01/02:30pm 30.3 25.0 4.9 20 13.2 N 22 33 12 18 1013.2 1013.2 0.0
01/02:00pm 30.9 26.0 5.3 20 13.5 NNW 20 26 11 14 1013.4 1013.4 0.0
01/01:30pm 30.3 25.7 5.6 21 13.0 NNW 19 30 10 16 1013.7 1013.6 0.0
01/01:00pm 30.4 25.9 4.2 19 13.5 N 17 20 9 11 1014.1 1014.0 0.0
01/12:30pm 29.4 26.0 4.1 20 12.9 WNW 11 17 6 9 1014.8 1014.7 0.0
01/12:00pm 29.2 25.5 4.6 21 12.6 SSW 13 19 7 10 1015.1 1015.0 0.0
01/11:30am 28.8 25.1 4.3 21 12.5 WSW 13 24 7 13 1015.6 1015.5 0.0
01/11:00am 28.9 24.8 4.4 21 12.5 S 15 24 8 13 1015.9 1015.8 0.0
01/10:30am 28.3 24.2 4.6 22 12.1 SSE 15 24 8 13 1016.2 1016.1 0.0
01/10:00am 27.2 23.1 4.3 23 11.6 SSE 15 20 8 11 1016.5 1016.4 0.0
01/09:30am 26.1 21.2 4.0 24 11.0 SSE 19 24 10 13 1016.7 1016.6 0.0
01/09:00am 25.0 20.1 4.2 26 10.3 S 19 24 10 13 1016.8 1016.7 0.0
01/08:30am 23.9 18.7 3.8 27 9.8 S 20 24 11 13 1016.6 1016.5 0.0
01/08:00am 22.5 18.8 4.5 31 8.8 S 13 20 7 11 1016.5 1016.4 0.0
01/07:30am 20.6 16.9 4.6 35 7.8 SW 13 17 7 9 1016.3 1016.2 0.0
01/07:00am 19.0 15.0 5.1 40 6.7 SW 15 19 8 10 1015.9 1015.8 0.0
01/06:30am 17.3 13.3 4.9 44 5.9 SW 15 17 8 9 1015.5 1015.4 0.0
01/06:00am 17.1 12.8 5.1 45 5.7 SW 17 19 9 10 1015.2 1015.1 0.0
01/05:30am 16.7 12.4 5.3 47 5.5 SW 17 17 9 9 1015.0 1014.9 0.0
01/05:00am 17.4 13.1 5.4 45 5.8 SW 17 20 9 11 1014.9 1014.8 0.0
01/04:30am 18.7 14.2 5.9 43 6.3 SW 19 22 10 12 1014.5 1014.4 0.0
01/04:00am 18.6 14.1 6.1 44 6.2 SW 19 24 10 13 1014.4 1014.3 0.0
01/03:30am 19.4 15.4 6.5 43 6.5 SW 17 20 9 11 1014.4 1014.3 0.0
01/03:00am 19.1 15.2 6.9 45 6.1 WSW 17 20 9 11 1014.4 1014.3 0.0
01/02:30am 18.8 15.0 7.6 48 5.7 SW 17 20 9 11 1014.5 1014.4 0.0
01/02:00am 19.3 16.4 8.0 48 5.8 WSW 13 17 7 9 1014.6 1014.5 0.0
01/01:30am 19.6 16.4 8.3 48 5.9 WSW 15 20 8 11 1014.8 1014.7 0.0
01/01:00am 19.9 16.5 9.2 50 5.6 W 17 22 9 12 1015.1 1015.0 0.0
01/12:30am 20.1 16.3 9.9 52 5.5 W 20 24 11 13 1015.3 1015.2 0.0
01/12:00am 20.3 16.7 10.4 53 5.4 W 20 26 11 14 1015.4 1015.3 0.0
 
Date/Time
WST
Temp
°C
App
Temp
°C
Dew
Point
Rel
Hum
%
Delta-T
°C
Wind Press
QNH
hPa
Press
MSL
hPa
Rain
since 9 am
mm
Dir
 
Spd
km/h
Gust
km/h
Spd
kts
Gust
kts
31/11:30pm 20.5 17.0 10.9 54 5.3 W 20 24 11 13 1015.7 1015.6 0.0

Other Formats:

Comma delimited format used in spreadsheet applications
http://www.bom.gov.au/fwo/IDW60801/IDW60801.94308.axf

JavaScript Object Notation format (JSON) in row-major order
http://www.bom.gov.au/fwo/IDW60801/IDW60801.94308.json